Terminal Aerodrome Forecast
Issued by NWS

Home | Current Version | Previous Version | Text Only | Print | Product List | Glossary On
Versions: 1 2 3 4 5 6 7 8 9 10 11 12 13 14 15 16 17 18 19 20 21 22 23 24 25 26 27 28 29 30
000
FTUS43 KMQT 250537
TAFIWD
TAF
KIWD 250537Z 2506/2606 26006KT P6SM BKN080
     FM251400 24012KT P6SM FEW100
     FM251700 25013G21KT P6SM SCT045
     FM252100 26013KT P6SM VCSH SCT045
     FM260200 26006KT P6SM SCT070=

USA.gov is the U.S. government's official web portal to all federal, state and local government web resources and services.